sensor_id;sensor_type;location;lat;lon;timestamp;temperature;humidity
21698;DHT22;11010;49.548;11.926;2023-05-07T00:00:04;15.20;99.90
21698;DHT22;11010;49.548;11.926;2023-05-07T00:02:35;15.10;99.90
21698;DHT22;11010;49.548;11.926;2023-05-07T00:05:03;15.40;99.90
21698;DHT22;11010;49.548;11.926;2023-05-07T00:07:31;15.30;99.90
21698;DHT22;11010;49.548;11.926;2023-05-07T00:09:58;15.10;99.90
21698;DHT22;11010;49.548;11.926;2023-05-07T00:12:25;14.90;99.90
21698;DHT22;11010;49.548;11.926;2023-05-07T00:14:52;15.00;99.90
21698;DHT22;11010;49.548;11.926;2023-05-07T00:17:19;15.30;99.90
21698;DHT22;11010;49.548;11.926;2023-05-07T00:19:46;15.30;99.90
21698;DHT22;11010;49.548;11.926;2023-05-07T00:22:14;15.20;99.90
21698;DHT22;11010;49.548;11.926;2023-05-07T00:24:41;15.10;99.90
21698;DHT22;11010;49.548;11.926;2023-05-07T00:27:09;15.10;99.90
21698;DHT22;11010;49.548;11.926;2023-05-07T00:29:36;15.20;99.90
21698;DHT22;11010;49.548;11.926;2023-05-07T00:32:03;15.30;99.90
21698;DHT22;11010;49.548;11.926;2023-05-07T00:34:31;15.20;99.90
21698;DHT22;11010;49.548;11.926;2023-05-07T00:36:58;15.10;99.90
21698;DHT22;11010;49.548;11.926;2023-05-07T00:39:25;15.00;99.90
21698;DHT22;11010;49.548;11.926;2023-05-07T00:41:52;15.00;99.90
21698;DHT22;11010;49.548;11.926;2023-05-07T00:44:19;14.90;99.90
21698;DHT22;11010;49.548;11.926;2023-05-07T00:46:46;14.90;99.90
21698;DHT22;11010;49.548;11.926;2023-05-07T00:49:16;15.00;99.90
21698;DHT22;11010;49.548;11.926;2023-05-07T00:51:45;14.90;99.90
21698;DHT22;11010;49.548;11.926;2023-05-07T00:54:13;14.80;99.90
21698;DHT22;11010;49.548;11.926;2023-05-07T00:56:40;14.90;99.90
21698;DHT22;11010;49.548;11.926;2023-05-07T00:59:08;14.90;99.90
21698;DHT22;11010;49.548;11.926;2023-05-07T01:01:35;14.90;99.90
21698;DHT22;11010;49.548;11.926;2023-05-07T01:04:03;14.90;99.90
21698;DHT22;11010;49.548;11.926;2023-05-07T01:06:32;14.80;99.90
21698;DHT22;11010;49.548;11.926;2023-05-07T01:09:00;14.60;99.90
21698;DHT22;11010;49.548;11.926;2023-05-07T01:11:28;14.70;99.90
21698;DHT22;11010;49.548;11.926;2023-05-07T01:13:56;14.80;99.90
21698;DHT22;11010;49.548;11.926;2023-05-07T01:16:23;14.70;99.90
21698;DHT22;11010;49.548;11.926;2023-05-07T01:18:51;14.70;99.90
21698;DHT22;11010;49.548;11.926;2023-05-07T01:21:18;14.70;99.90
21698;DHT22;11010;49.548;11.926;2023-05-07T01:23:49;14.70;99.90
21698;DHT22;11010;49.548;11.926;2023-05-07T01:26:16;14.60;99.90
21698;DHT22;11010;49.548;11.926;2023-05-07T01:28:46;14.60;99.90
21698;DHT22;11010;49.548;11.926;2023-05-07T01:31:14;14.60;99.90
21698;DHT22;11010;49.548;11.926;2023-05-07T01:33:44;14.60;99.90
21698;DHT22;11010;49.548;11.926;2023-05-07T01:36:13;14.60;99.90
21698;DHT22;11010;49.548;11.926;2023-05-07T01:38:41;14.50;99.90
21698;DHT22;11010;49.548;11.926;2023-05-07T01:41:09;14.60;99.90
21698;DHT22;11010;49.548;11.926;2023-05-07T01:43:36;14.60;99.90
21698;DHT22;11010;49.548;11.926;2023-05-07T01:46:04;14.70;99.90
21698;DHT22;11010;49.548;11.926;2023-05-07T01:48:32;14.70;99.90
21698;DHT22;11010;49.548;11.926;2023-05-07T01:50:59;14.70;99.90
21698;DHT22;11010;49.548;11.926;2023-05-07T01:53:28;14.60;99.90
21698;DHT22;11010;49.548;11.926;2023-05-07T01:55:55;14.60;99.90
21698;DHT22;11010;49.548;11.926;2023-05-07T01:58:24;14.50;99.90
21698;DHT22;11010;49.548;11.926;2023-05-07T02:00:51;14.50;99.90
21698;DHT22;11010;49.548;11.926;2023-05-07T02:03:18;14.30;99.90
21698;DHT22;11010;49.548;11.926;2023-05-07T02:05:55;14.30;99.90
21698;DHT22;11010;49.548;11.926;2023-05-07T02:08:34;14.40;99.90
21698;DHT22;11010;49.548;11.926;2023-05-07T02:11:02;14.50;99.90
21698;DHT22;11010;49.548;11.926;2023-05-07T02:13:31;14.40;99.90
21698;DHT22;11010;49.548;11.926;2023-05-07T02:16:00;14.30;99.90
21698;DHT22;11010;49.548;11.926;2023-05-07T02:18:27;14.40;99.90
21698;DHT22;11010;49.548;11.926;2023-05-07T02:20:54;14.40;99.90
21698;DHT22;11010;49.548;11.926;2023-05-07T02:23:22;14.50;99.90
21698;DHT22;11010;49.548;11.926;2023-05-07T02:25:49;14.40;99.90
21698;DHT22;11010;49.548;11.926;2023-05-07T02:28:16;14.40;99.90
21698;DHT22;11010;49.548;11.926;2023-05-07T02:31:09;14.30;99.90
21698;DHT22;11010;49.548;11.926;2023-05-07T02:33:37;14.40;99.90
21698;DHT22;11010;49.548;11.926;2023-05-07T02:36:08;14.40;99.90
21698;DHT22;11010;49.548;11.926;2023-05-07T02:38:46;14.40;99.90
21698;DHT22;11010;49.548;11.926;2023-05-07T02:41:13;14.50;99.90
21698;DHT22;11010;49.548;11.926;2023-05-07T02:43:40;14.20;99.90
21698;DHT22;11010;49.548;11.926;2023-05-07T02:46:08;14.20;99.90
21698;DHT22;11010;49.548;11.926;2023-05-07T02:48:39;14.30;99.90
21698;DHT22;11010;49.548;11.926;2023-05-07T02:51:06;14.20;99.90
21698;DHT22;11010;49.548;11.926;2023-05-07T02:53:35;14.20;99.90
21698;DHT22;11010;49.548;11.926;2023-05-07T02:56:03;14.20;99.90
21698;DHT22;11010;49.548;11.926;2023-05-07T02:58:30;14.30;99.90
21698;DHT22;11010;49.548;11.926;2023-05-07T03:00:58;14.20;99.90
21698;DHT22;11010;49.548;11.926;2023-05-07T03:03:37;14.20;99.90
21698;DHT22;11010;49.548;11.926;2023-05-07T03:06:06;14.20;99.90
21698;DHT22;11010;49.548;11.926;2023-05-07T03:08:33;14.30;99.90
21698;DHT22;11010;49.548;11.926;2023-05-07T03:11:00;14.10;99.90
21698;DHT22;11010;49.548;11.926;2023-05-07T03:13:27;14.20;99.90
21698;DHT22;11010;49.548;11.926;2023-05-07T03:15:55;13.90;99.90
21698;DHT22;11010;49.548;11.926;2023-05-07T03:18:22;14.00;99.90
21698;DHT22;11010;49.548;11.926;2023-05-07T03:20:49;14.10;99.90
21698;DHT22;11010;49.548;11.926;2023-05-07T03:23:17;14.00;99.90
21698;DHT22;11010;49.548;11.926;2023-05-07T03:25:44;14.00;99.90
21698;DHT22;11010;49.548;11.926;2023-05-07T03:28:12;14.00;99.90
21698;DHT22;11010;49.548;11.926;2023-05-07T03:30:45;14.10;99.90
21698;DHT22;11010;49.548;11.926;2023-05-07T03:33:12;13.90;99.90
21698;DHT22;11010;49.548;11.926;2023-05-07T03:35:40;13.90;99.90
21698;DHT22;11010;49.548;11.926;2023-05-07T03:38:07;13.80;99.90
21698;DHT22;11010;49.548;11.926;2023-05-07T03:40:36;13.90;99.90
21698;DHT22;11010;49.548;11.926;2023-05-07T03:43:04;14.00;99.90
21698;DHT22;11010;49.548;11.926;2023-05-07T03:45:34;13.90;99.90
21698;DHT22;11010;49.548;11.926;2023-05-07T03:48:15;13.90;99.90
21698;DHT22;11010;49.548;11.926;2023-05-07T03:50:42;13.90;99.90
21698;DHT22;11010;49.548;11.926;2023-05-07T03:53:10;13.80;99.90
21698;DHT22;11010;49.548;11.926;2023-05-07T03:55:38;13.80;99.90
21698;DHT22;11010;49.548;11.926;2023-05-07T03:58:06;13.80;99.90
21698;DHT22;11010;49.548;11.926;2023-05-07T04:00:33;13.70;99.90
21698;DHT22;11010;49.548;11.926;2023-05-07T04:03:14;13.80;99.90
21698;DHT22;11010;49.548;11.926;2023-05-07T04:05:41;13.70;99.90
21698;DHT22;11010;49.548;11.926;2023-05-07T04:08:09;13.60;99.90
21698;DHT22;11010;49.548;11.926;2023-05-07T04:10:40;13.60;99.90
21698;DHT22;11010;49.548;11.926;2023-05-07T04:13:09;13.60;99.90
21698;DHT22;11010;49.548;11.926;2023-05-07T04:15:37;13.60;99.90
21698;DHT22;11010;49.548;11.926;2023-05-07T04:18:08;13.70;99.90
21698;DHT22;11010;49.548;11.926;2023-05-07T04:20:36;13.60;99.90
21698;DHT22;11010;49.548;11.926;2023-05-07T04:23:07;13.60;99.90
21698;DHT22;11010;49.548;11.926;2023-05-07T04:25:35;13.50;99.90
21698;DHT22;11010;49.548;11.926;2023-05-07T04:28:11;13.50;99.90
21698;DHT22;11010;49.548;11.926;2023-05-07T04:30:40;13.60;99.90
21698;DHT22;11010;49.548;11.926;2023-05-07T04:33:09;13.60;99.90
21698;DHT22;11010;49.548;11.926;2023-05-07T04:35:37;13.70;99.90
21698;DHT22;11010;49.548;11.926;2023-05-07T04:38:05;13.70;99.90
21698;DHT22;11010;49.548;11.926;2023-05-07T04:40:33;13.70;99.90
21698;DHT22;11010;49.548;11.926;2023-05-07T04:43:02;13.70;99.90
21698;DHT22;11010;49.548;11.926;2023-05-07T04:45:32;13.60;99.90
21698;DHT22;11010;49.548;11.926;2023-05-07T04:48:00;13.70;99.90
21698;DHT22;11010;49.548;11.926;2023-05-07T04:50:29;13.70;99.90
21698;DHT22;11010;49.548;11.926;2023-05-07T04:53:00;13.60;99.90
21698;DHT22;11010;49.548;11.926;2023-05-07T04:55:28;13.70;99.90
21698;DHT22;11010;49.548;11.926;2023-05-07T04:57:56;13.80;99.90
21698;DHT22;11010;49.548;11.926;2023-05-07T05:00:23;13.70;99.90
21698;DHT22;11010;49.548;11.926;2023-05-07T05:02:53;13.80;99.90
21698;DHT22;11010;49.548;11.926;2023-05-07T05:05:22;13.80;99.90
21698;DHT22;11010;49.548;11.926;2023-05-07T05:07:51;13.90;99.90
21698;DHT22;11010;49.548;11.926;2023-05-07T05:10:19;13.80;99.90
21698;DHT22;11010;49.548;11.926;2023-05-07T05:12:49;13.70;99.90
21698;DHT22;11010;49.548;11.926;2023-05-07T05:15:17;13.70;99.90
21698;DHT22;11010;49.548;11.926;2023-05-07T05:17:44;13.70;99.90
21698;DHT22;11010;49.548;11.926;2023-05-07T05:20:11;13.70;99.90
21698;DHT22;11010;49.548;11.926;2023-05-07T05:22:42;13.60;99.90
21698;DHT22;11010;49.548;11.926;2023-05-07T05:25:10;13.60;99.90
21698;DHT22;11010;49.548;11.926;2023-05-07T05:27:37;13.60;99.90
21698;DHT22;11010;49.548;11.926;2023-05-07T05:30:05;13.70;99.90
21698;DHT22;11010;49.548;11.926;2023-05-07T05:32:33;13.60;99.90
21698;DHT22;11010;49.548;11.926;2023-05-07T05:35:01;13.60;99.90
21698;DHT22;11010;49.548;11.926;2023-05-07T05:37:29;13.80;99.90
21698;DHT22;11010;49.548;11.926;2023-05-07T05:40:00;13.90;99.90
21698;DHT22;11010;49.548;11.926;2023-05-07T05:42:29;13.80;99.90
21698;DHT22;11010;49.548;11.926;2023-05-07T05:44:56;13.70;99.90
21698;DHT22;11010;49.548;11.926;2023-05-07T05:47:24;13.70;99.90
21698;DHT22;11010;49.548;11.926;2023-05-07T05:49:54;13.80;99.90
21698;DHT22;11010;49.548;11.926;2023-05-07T05:52:21;13.80;99.90
21698;DHT22;11010;49.548;11.926;2023-05-07T05:54:50;13.80;99.90
21698;DHT22;11010;49.548;11.926;2023-05-07T05:57:19;13.90;99.90
21698;DHT22;11010;49.548;11.926;2023-05-07T05:59:46;13.80;99.90
21698;DHT22;11010;49.548;11.926;2023-05-07T06:02:14;13.80;99.90
21698;DHT22;11010;49.548;11.926;2023-05-07T06:04:41;13.80;99.90
21698;DHT22;11010;49.548;11.926;2023-05-07T06:07:12;13.90;99.90
21698;DHT22;11010;49.548;11.926;2023-05-07T06:09:40;13.90;99.90
21698;DHT22;11010;49.548;11.926;2023-05-07T06:12:08;13.90;99.90
21698;DHT22;11010;49.548;11.926;2023-05-07T06:14:35;13.80;99.90
21698;DHT22;11010;49.548;11.926;2023-05-07T06:17:02;13.80;99.90
21698;DHT22;11010;49.548;11.926;2023-05-07T06:19:30;13.80;99.90
21698;DHT22;11010;49.548;11.926;2023-05-07T06:21:58;13.70;99.90
21698;DHT22;11010;49.548;11.926;2023-05-07T06:24:29;13.80;99.90
21698;DHT22;11010;49.548;11.926;2023-05-07T06:26:56;13.80;99.90
21698;DHT22;11010;49.548;11.926;2023-05-07T06:29:26;13.80;99.90
21698;DHT22;11010;49.548;11.926;2023-05-07T06:31:53;13.80;99.90
21698;DHT22;11010;49.548;11.926;2023-05-07T06:34:22;13.90;99.90
21698;DHT22;11010;49.548;11.926;2023-05-07T06:36:50;13.90;99.90
21698;DHT22;11010;49.548;11.926;2023-05-07T06:39:30;14.00;99.90
21698;DHT22;11010;49.548;11.926;2023-05-07T06:41:57;14.10;99.90
21698;DHT22;11010;49.548;11.926;2023-05-07T06:44:30;14.10;99.90
21698;DHT22;11010;49.548;11.926;2023-05-07T06:47:04;14.10;99.90
21698;DHT22;11010;49.548;11.926;2023-05-07T06:49:33;14.20;99.90
21698;DHT22;11010;49.548;11.926;2023-05-07T06:52:00;14.30;99.90
21698;DHT22;11010;49.548;11.926;2023-05-07T06:54:29;14.40;99.90
21698;DHT22;11010;49.548;11.926;2023-05-07T06:56:57;14.40;99.90
21698;DHT22;11010;49.548;11.926;2023-05-07T06:59:26;14.40;99.90
21698;DHT22;11010;49.548;11.926;2023-05-07T07:01:54;14.60;99.90
21698;DHT22;11010;49.548;11.926;2023-05-07T07:04:22;14.60;99.90
21698;DHT22;11010;49.548;11.926;2023-05-07T07:06:58;14.70;99.90
21698;DHT22;11010;49.548;11.926;2023-05-07T07:09:25;14.70;99.90
21698;DHT22;11010;49.548;11.926;2023-05-07T07:11:53;14.80;99.90
21698;DHT22;11010;49.548;11.926;2023-05-07T07:14:21;14.80;99.90
21698;DHT22;11010;49.548;11.926;2023-05-07T07:16:50;14.90;99.90
21698;DHT22;11010;49.548;11.926;2023-05-07T07:19:19;15.00;99.90
21698;DHT22;11010;49.548;11.926;2023-05-07T07:21:49;15.10;99.90
21698;DHT22;11010;49.548;11.926;2023-05-07T07:24:17;15.10;99.90
21698;DHT22;11010;49.548;11.926;2023-05-07T07:26:51;15.30;99.90
21698;DHT22;11010;49.548;11.926;2023-05-07T07:29:20;15.40;99.90
21698;DHT22;11010;49.548;11.926;2023-05-07T07:31:48;15.50;99.90
21698;DHT22;11010;49.548;11.926;2023-05-07T07:34:18;15.60;99.90
21698;DHT22;11010;49.548;11.926;2023-05-07T07:36:45;15.70;99.90
21698;DHT22;11010;49.548;11.926;2023-05-07T07:39:16;15.60;99.90
21698;DHT22;11010;49.548;11.926;2023-05-07T07:41:44;15.70;99.90
21698;DHT22;11010;49.548;11.926;2023-05-07T07:44:12;15.80;99.90
21698;DHT22;11010;49.548;11.926;2023-05-07T07:46:45;15.90;99.90
21698;DHT22;11010;49.548;11.926;2023-05-07T07:49:12;15.90;99.90
21698;DHT22;11010;49.548;11.926;2023-05-07T07:51:40;16.10;99.90
21698;DHT22;11010;49.548;11.926;2023-05-07T07:54:09;16.30;99.90
21698;DHT22;11010;49.548;11.926;2023-05-07T07:56:38;16.40;99.90
21698;DHT22;11010;49.548;11.926;2023-05-07T07:59:06;16.40;99.90
21698;DHT22;11010;49.548;11.926;2023-05-07T08:01:36;16.20;99.90
21698;DHT22;11010;49.548;11.926;2023-05-07T08:04:04;16.40;99.90
21698;DHT22;11010;49.548;11.926;2023-05-07T08:06:35;16.40;99.90
21698;DHT22;11010;49.548;11.926;2023-05-07T08:09:03;16.60;99.90
21698;DHT22;11010;49.548;11.926;2023-05-07T08:11:30;16.70;99.90
21698;DHT22;11010;49.548;11.926;2023-05-07T08:13:58;16.50;99.90
21698;DHT22;11010;49.548;11.926;2023-05-07T08:16:25;16.70;99.90
21698;DHT22;11010;49.548;11.926;2023-05-07T08:18:53;16.70;99.90
21698;DHT22;11010;49.548;11.926;2023-05-07T08:21:20;16.90;99.90
21698;DHT22;11010;49.548;11.926;2023-05-07T08:23:47;16.80;99.90
21698;DHT22;11010;49.548;11.926;2023-05-07T08:26:14;16.70;99.90
21698;DHT22;11010;49.548;11.926;2023-05-07T08:28:42;16.90;99.90
21698;DHT22;11010;49.548;11.926;2023-05-07T08:31:09;17.00;99.90
21698;DHT22;11010;49.548;11.926;2023-05-07T08:33:39;17.20;99.90
21698;DHT22;11010;49.548;11.926;2023-05-07T08:36:06;17.30;99.90
21698;DHT22;11010;49.548;11.926;2023-05-07T08:38:34;17.30;99.90
21698;DHT22;11010;49.548;11.926;2023-05-07T08:41:02;17.20;99.90
21698;DHT22;11010;49.548;11.926;2023-05-07T08:43:32;17.40;99.90
21698;DHT22;11010;49.548;11.926;2023-05-07T08:46:01;17.50;99.90
21698;DHT22;11010;49.548;11.926;2023-05-07T08:48:33;17.60;99.90
21698;DHT22;11010;49.548;11.926;2023-05-07T08:51:06;17.70;99.90
21698;DHT22;11010;49.548;11.926;2023-05-07T08:53:35;17.80;99.90
21698;DHT22;11010;49.548;11.926;2023-05-07T08:56:03;17.80;99.90
21698;DHT22;11010;49.548;11.926;2023-05-07T08:58:31;17.80;99.90
21698;DHT22;11010;49.548;11.926;2023-05-07T09:01:00;17.80;99.90
21698;DHT22;11010;49.548;11.926;2023-05-07T09:03:30;17.80;99.90
21698;DHT22;11010;49.548;11.926;2023-05-07T09:05:58;17.70;99.90
21698;DHT22;11010;49.548;11.926;2023-05-07T09:08:27;17.80;99.90
21698;DHT22;11010;49.548;11.926;2023-05-07T09:10:58;18.00;99.90
21698;DHT22;11010;49.548;11.926;2023-05-07T09:13:27;18.00;99.90
21698;DHT22;11010;49.548;11.926;2023-05-07T09:15:55;18.40;99.90
21698;DHT22;11010;49.548;11.926;2023-05-07T09:18:24;18.70;99.90
21698;DHT22;11010;49.548;11.926;2023-05-07T09:20:53;18.80;99.90
21698;DHT22;11010;49.548;11.926;2023-05-07T09:23:21;19.20;99.90
21698;DHT22;11010;49.548;11.926;2023-05-07T09:25:49;19.50;99.90
21698;DHT22;11010;49.548;11.926;2023-05-07T09:28:25;19.80;99.90
21698;DHT22;11010;49.548;11.926;2023-05-07T09:30:52;19.70;99.90
21698;DHT22;11010;49.548;11.926;2023-05-07T09:33:20;19.70;99.90
21698;DHT22;11010;49.548;11.926;2023-05-07T09:35:54;20.00;99.90
21698;DHT22;11010;49.548;11.926;2023-05-07T09:38:21;19.70;99.90
21698;DHT22;11010;49.548;11.926;2023-05-07T09:41:06;20.00;99.90
21698;DHT22;11010;49.548;11.926;2023-05-07T09:43:40;20.30;99.90
21698;DHT22;11010;49.548;11.926;2023-05-07T09:46:14;20.10;99.90
21698;DHT22;11010;49.548;11.926;2023-05-07T09:48:48;20.30;99.90
21698;DHT22;11010;49.548;11.926;2023-05-07T09:51:39;20.50;99.90
21698;DHT22;11010;49.548;11.926;2023-05-07T09:54:10;20.60;99.90
21698;DHT22;11010;49.548;11.926;2023-05-07T09:56:40;20.60;99.90
21698;DHT22;11010;49.548;11.926;2023-05-07T09:59:13;20.50;99.90
21698;DHT22;11010;49.548;11.926;2023-05-07T10:01:42;20.10;99.90
21698;DHT22;11010;49.548;11.926;2023-05-07T10:04:10;20.00;99.90
21698;DHT22;11010;49.548;11.926;2023-05-07T10:06:40;20.30;99.90
21698;DHT22;11010;49.548;11.926;2023-05-07T10:09:09;20.60;99.90
21698;DHT22;11010;49.548;11.926;2023-05-07T10:11:38;21.00;99.90
21698;DHT22;11010;49.548;11.926;2023-05-07T10:14:07;20.60;99.90
21698;DHT22;11010;49.548;11.926;2023-05-07T10:16:36;20.70;99.90
21698;DHT22;11010;49.548;11.926;2023-05-07T10:19:09;20.80;99.90
21698;DHT22;11010;49.548;11.926;2023-05-07T10:21:48;21.40;99.90
21698;DHT22;11010;49.548;11.926;2023-05-07T10:24:21;21.80;99.90
21698;DHT22;11010;49.548;11.926;2023-05-07T10:26:51;22.10;99.90
21698;DHT22;11010;49.548;11.926;2023-05-07T10:34:36;22.20;99.90
21698;DHT22;11010;49.548;11.926;2023-05-07T10:37:05;22.00;99.90
21698;DHT22;11010;49.548;11.926;2023-05-07T10:39:34;21.80;99.90
21698;DHT22;11010;49.548;11.926;2023-05-07T10:42:13;22.00;99.90
21698;DHT22;11010;49.548;11.926;2023-05-07T10:44:47;22.50;99.90
21698;DHT22;11010;49.548;11.926;2023-05-07T10:47:21;22.80;99.90
21698;DHT22;11010;49.548;11.926;2023-05-07T10:52:23;22.40;99.90
21698;DHT22;11010;49.548;11.926;2023-05-07T11:02:03;22.70;99.90
21698;DHT22;11010;49.548;11.926;2023-05-07T11:05:21;23.20;99.90
21698;DHT22;11010;49.548;11.926;2023-05-07T11:08:14;23.40;99.90
21698;DHT22;11010;49.548;11.926;2023-05-07T11:10:58;22.90;99.90
21698;DHT22;11010;49.548;11.926;2023-05-07T11:13:47;23.10;99.90
21698;DHT22;11010;49.548;11.926;2023-05-07T11:16:35;23.20;99.90
21698;DHT22;11010;49.548;11.926;2023-05-07T11:19:16;23.90;99.90
21698;DHT22;11010;49.548;11.926;2023-05-07T11:21:47;24.00;99.90
21698;DHT22;11010;49.548;11.926;2023-05-07T11:24:44;23.80;99.90
21698;DHT22;11010;49.548;11.926;2023-05-07T11:27:13;24.10;99.90
21698;DHT22;11010;49.548;11.926;2023-05-07T11:29:46;24.00;99.90
21698;DHT22;11010;49.548;11.926;2023-05-07T11:32:14;23.70;99.90
21698;DHT22;11010;49.548;11.926;2023-05-07T11:34:51;23.80;99.90
21698;DHT22;11010;49.548;11.926;2023-05-07T11:37:20;23.80;99.90
21698;DHT22;11010;49.548;11.926;2023-05-07T11:40:07;23.80;99.90
21698;DHT22;11010;49.548;11.926;2023-05-07T11:42:38;24.20;99.90
21698;DHT22;11010;49.548;11.926;2023-05-07T11:45:06;24.70;99.90
21698;DHT22;11010;49.548;11.926;2023-05-07T11:47:34;24.30;99.90
21698;DHT22;11010;49.548;11.926;2023-05-07T11:50:05;24.50;99.90
21698;DHT22;11010;49.548;11.926;2023-05-07T11:52:33;24.70;99.90
21698;DHT22;11010;49.548;11.926;2023-05-07T11:55:01;24.20;99.90
21698;DHT22;11010;49.548;11.926;2023-05-07T11:57:32;23.80;99.90
21698;DHT22;11010;49.548;11.926;2023-05-07T12:00:00;24.20;99.90
21698;DHT22;11010;49.548;11.926;2023-05-07T12:02:40;24.50;99.90
21698;DHT22;11010;49.548;11.926;2023-05-07T12:05:09;24.60;99.90
21698;DHT22;11010;49.548;11.926;2023-05-07T12:07:37;25.10;99.90
21698;DHT22;11010;49.548;11.926;2023-05-07T12:10:07;25.00;99.90
21698;DHT22;11010;49.548;11.926;2023-05-07T12:12:41;25.40;99.90
21698;DHT22;11010;49.548;11.926;2023-05-07T12:15:13;24.90;99.90
21698;DHT22;11010;49.548;11.926;2023-05-07T12:17:42;25.10;99.90
21698;DHT22;11010;49.548;11.926;2023-05-07T12:20:10;25.10;99.90
21698;DHT22;11010;49.548;11.926;2023-05-07T12:22:37;25.10;99.90
21698;DHT22;11010;49.548;11.926;2023-05-07T12:25:05;25.60;99.90
21698;DHT22;11010;49.548;11.926;2023-05-07T12:27:37;25.20;99.90
21698;DHT22;11010;49.548;11.926;2023-05-07T12:30:05;25.30;99.90
21698;DHT22;11010;49.548;11.926;2023-05-07T12:32:32;25.60;99.90
21698;DHT22;11010;49.548;11.926;2023-05-07T12:35:05;25.70;99.90
21698;DHT22;11010;49.548;11.926;2023-05-07T12:37:35;25.90;99.90
21698;DHT22;11010;49.548;11.926;2023-05-07T12:40:09;26.00;99.90
21698;DHT22;11010;49.548;11.926;2023-05-07T12:42:38;25.90;99.90
21698;DHT22;11010;49.548;11.926;2023-05-07T12:45:15;25.90;99.90
21698;DHT22;11010;49.548;11.926;2023-05-07T12:47:44;26.00;99.90
21698;DHT22;11010;49.548;11.926;2023-05-07T12:50:13;25.80;99.90
21698;DHT22;11010;49.548;11.926;2023-05-07T12:52:41;26.00;99.90
21698;DHT22;11010;49.548;11.926;2023-05-07T12:55:11;25.60;99.90
21698;DHT22;11010;49.548;11.926;2023-05-07T12:57:41;25.60;99.90
21698;DHT22;11010;49.548;11.926;2023-05-07T13:00:09;25.60;99.90
21698;DHT22;11010;49.548;11.926;2023-05-07T13:02:41;25.80;99.90
21698;DHT22;11010;49.548;11.926;2023-05-07T13:05:08;25.50;99.90
21698;DHT22;11010;49.548;11.926;2023-05-07T13:07:36;26.00;99.90
21698;DHT22;11010;49.548;11.926;2023-05-07T13:10:04;25.80;99.90
21698;DHT22;11010;49.548;11.926;2023-05-07T13:12:32;26.20;99.90
21698;DHT22;11010;49.548;11.926;2023-05-07T13:14:59;26.30;99.90
21698;DHT22;11010;49.548;11.926;2023-05-07T13:17:26;26.20;99.90
21698;DHT22;11010;49.548;11.926;2023-05-07T13:19:53;26.40;99.90
21698;DHT22;11010;49.548;11.926;2023-05-07T13:22:21;26.40;99.90
21698;DHT22;11010;49.548;11.926;2023-05-07T13:24:48;26.50;99.90
21698;DHT22;11010;49.548;11.926;2023-05-07T13:27:15;26.40;99.90
21698;DHT22;11010;49.548;11.926;2023-05-07T13:29:42;26.40;99.90
21698;DHT22;11010;49.548;11.926;2023-05-07T13:32:09;26.60;99.90
21698;DHT22;11010;49.548;11.926;2023-05-07T13:34:36;26.50;99.90
21698;DHT22;11010;49.548;11.926;2023-05-07T13:37:03;26.60;99.90
21698;DHT22;11010;49.548;11.926;2023-05-07T13:39:31;26.70;99.90
21698;DHT22;11010;49.548;11.926;2023-05-07T13:41:58;26.40;99.90
21698;DHT22;11010;49.548;11.926;2023-05-07T13:44:26;26.50;99.90
21698;DHT22;11010;49.548;11.926;2023-05-07T13:46:53;26.60;99.90
21698;DHT22;11010;49.548;11.926;2023-05-07T13:49:20;26.50;99.90
21698;DHT22;11010;49.548;11.926;2023-05-07T13:51:47;26.70;99.90
21698;DHT22;11010;49.548;11.926;2023-05-07T13:54:14;26.70;99.90
21698;DHT22;11010;49.548;11.926;2023-05-07T13:56:42;26.60;99.90
21698;DHT22;11010;49.548;11.926;2023-05-07T13:59:09;26.40;99.90
21698;DHT22;11010;49.548;11.926;2023-05-07T14:01:36;26.50;99.90
21698;DHT22;11010;49.548;11.926;2023-05-07T14:04:04;26.40;99.90
21698;DHT22;11010;49.548;11.926;2023-05-07T14:06:31;26.20;99.90
21698;DHT22;11010;49.548;11.926;2023-05-07T14:08:58;26.40;99.90
21698;DHT22;11010;49.548;11.926;2023-05-07T14:11:25;26.20;99.90
21698;DHT22;11010;49.548;11.926;2023-05-07T14:13:52;26.50;99.90
21698;DHT22;11010;49.548;11.926;2023-05-07T14:16:19;26.30;99.90
21698;DHT22;11010;49.548;11.926;2023-05-07T14:18:46;26.30;99.90
21698;DHT22;11010;49.548;11.926;2023-05-07T14:21:13;26.60;99.90
21698;DHT22;11010;49.548;11.926;2023-05-07T14:23:41;26.50;99.90
21698;DHT22;11010;49.548;11.926;2023-05-07T14:26:08;26.60;99.90
21698;DHT22;11010;49.548;11.926;2023-05-07T14:28:35;26.50;99.90
21698;DHT22;11010;49.548;11.926;2023-05-07T14:31:02;26.40;99.90
21698;DHT22;11010;49.548;11.926;2023-05-07T14:33:29;26.40;99.90
21698;DHT22;11010;49.548;11.926;2023-05-07T14:35:56;26.30;99.90
21698;DHT22;11010;49.548;11.926;2023-05-07T14:38:23;26.40;99.90
21698;DHT22;11010;49.548;11.926;2023-05-07T14:40:51;26.30;99.90
21698;DHT22;11010;49.548;11.926;2023-05-07T14:43:18;26.20;99.90
21698;DHT22;11010;49.548;11.926;2023-05-07T14:45:47;26.40;99.90
21698;DHT22;11010;49.548;11.926;2023-05-07T14:48:14;26.10;99.90
21698;DHT22;11010;49.548;11.926;2023-05-07T14:50:42;26.10;99.90
21698;DHT22;11010;49.548;11.926;2023-05-07T14:53:09;26.10;99.90
21698;DHT22;11010;49.548;11.926;2023-05-07T14:55:36;26.20;99.90
21698;DHT22;11010;49.548;11.926;2023-05-07T14:58:03;26.40;99.90
21698;DHT22;11010;49.548;11.926;2023-05-07T15:00:31;26.30;99.90
21698;DHT22;11010;49.548;11.926;2023-05-07T15:03:07;25.90;99.90
21698;DHT22;11010;49.548;11.926;2023-05-07T15:05:35;25.50;99.90
21698;DHT22;11010;49.548;11.926;2023-05-07T15:08:03;25.60;99.90
21698;DHT22;11010;49.548;11.926;2023-05-07T15:10:30;25.70;99.90
21698;DHT22;11010;49.548;11.926;2023-05-07T15:12:57;25.30;99.90
21698;DHT22;11010;49.548;11.926;2023-05-07T15:15:24;25.10;99.90
21698;DHT22;11010;49.548;11.926;2023-05-07T15:17:53;25.20;99.90
21698;DHT22;11010;49.548;11.926;2023-05-07T15:20:20;25.10;99.90
21698;DHT22;11010;49.548;11.926;2023-05-07T15:22:48;25.30;99.90
21698;DHT22;11010;49.548;11.926;2023-05-07T15:25:15;24.70;99.90
21698;DHT22;11010;49.548;11.926;2023-05-07T15:27:43;24.90;99.90
21698;DHT22;11010;49.548;11.926;2023-05-07T15:30:11;25.00;99.90
21698;DHT22;11010;49.548;11.926;2023-05-07T15:32:39;24.70;99.90
21698;DHT22;11010;49.548;11.926;2023-05-07T15:35:07;24.70;99.90
21698;DHT22;11010;49.548;11.926;2023-05-07T15:37:35;24.60;99.90
21698;DHT22;11010;49.548;11.926;2023-05-07T15:40:02;24.70;99.90
21698;DHT22;11010;49.548;11.926;2023-05-07T15:42:32;24.00;99.90